createdAt,value
2023-03-31T00:01:44.273Z,12.38
2023-03-31T00:04:13.352Z,12.80
2023-03-31T00:06:42.049Z,12.74
2023-03-31T00:09:11.883Z,12.81
2023-03-31T00:11:39.050Z,12.79
2023-03-31T00:14:08.528Z,12.76
2023-03-31T00:16:36.523Z,12.76
2023-03-31T00:19:03.354Z,12.26
2023-03-31T00:21:33.613Z,12.64
2023-03-31T00:24:04.313Z,12.79
2023-03-31T00:26:31.479Z,12.53
2023-03-31T00:28:58.780Z,12.28
2023-03-31T00:31:25.588Z,12.37
2023-03-31T00:33:52.049Z,12.32
2023-03-31T00:36:21.774Z,12.31
2023-03-31T00:38:49.152Z,12.38
2023-03-31T00:41:16.124Z,12.32
2023-03-31T00:44:00.833Z,12.07
2023-03-31T00:46:33.613Z,12.45
2023-03-31T00:49:00.287Z,12.45
2023-03-31T00:51:29.666Z,12.20
2023-03-31T00:54:00.772Z,12.20
2023-03-31T00:56:32.578Z,12.42
2023-03-31T00:59:03.815Z,12.20
2023-03-31T01:01:31.227Z,12.21
2023-03-31T01:03:59.675Z,12.16
2023-03-31T01:06:26.327Z,12.30
2023-03-31T01:08:53.151Z,12.30
2023-03-31T01:11:24.398Z,12.42
2023-03-31T01:13:53.100Z,12.24
2023-03-31T01:16:19.733Z,12.07
2023-03-31T01:18:49.943Z,12.36
2023-03-31T01:21:57.026Z,12.43
2023-03-31T01:24:35.687Z,12.42
2023-03-31T01:27:28.115Z,11.96
2023-03-31T01:30:36.238Z,12.42
2023-03-31T01:33:27.027Z,12.37
2023-03-31T01:36:02.667Z,12.43
2023-03-31T01:38:32.257Z,12.41
2023-03-31T01:41:06.390Z,12.25
2023-03-31T01:43:41.610Z,12.32
2023-03-31T01:46:17.247Z,12.43
2023-03-31T01:49:08.368Z,12.29
2023-03-31T01:51:40.939Z,12.42
2023-03-31T01:54:19.328Z,12.43
2023-03-31T01:57:00.400Z,12.41
2023-03-31T01:59:31.245Z,12.46
2023-03-31T02:02:10.779Z,12.01
2023-03-31T02:04:48.329Z,12.48
2023-03-31T02:07:19.729Z,12.48
2023-03-31T02:09:53.531Z,12.42
2023-03-31T02:12:22.419Z,12.48
2023-03-31T02:14:52.712Z,12.53
2023-03-31T02:17:23.462Z,12.42
2023-03-31T02:19:53.499Z,12.32
2023-03-31T02:22:23.982Z,12.16
2023-03-31T02:24:53.466Z,12.55
2023-03-31T02:27:31.327Z,12.42
2023-03-31T02:29:58.607Z,12.45
2023-03-31T02:32:39.129Z,12.19
2023-03-31T02:35:08.017Z,12.49
2023-03-31T02:37:34.850Z,12.20
2023-03-31T02:40:10.483Z,12.21
2023-03-31T02:42:41.774Z,12.43
2023-03-31T02:45:48.140Z,12.33
2023-03-31T02:48:26.238Z,12.40
2023-03-31T02:51:16.502Z,12.37
2023-03-31T02:54:01.568Z,12.43
2023-03-31T02:56:33.798Z,12.34
2023-03-31T02:59:28.520Z,12.33
2023-03-31T03:02:10.795Z,12.07
2023-03-31T03:04:37.295Z,12.27
2023-03-31T03:07:10.017Z,12.26
2023-03-31T03:09:55.166Z,12.09
2023-03-31T03:12:28.915Z,12.09
2023-03-31T03:15:21.531Z,12.09
2023-03-31T03:17:49.013Z,11.93
2023-03-31T03:20:19.283Z,12.18
2023-03-31T03:22:45.832Z,12.28
2023-03-31T03:25:17.208Z,12.03
2023-03-31T03:27:44.379Z,11.84
2023-03-31T03:30:12.285Z,12.13
2023-03-31T03:32:39.086Z,12.10
2023-03-31T03:35:06.810Z,12.02
2023-03-31T03:37:36.793Z,11.92
2023-03-31T03:40:05.979Z,11.83
2023-03-31T03:42:33.825Z,11.68
2023-03-31T03:45:01.326Z,12.06
2023-03-31T03:47:28.513Z,12.08
2023-03-31T03:49:55.051Z,11.98
2023-03-31T03:52:21.515Z,11.72
2023-03-31T03:54:48.407Z,11.77
2023-03-31T03:57:15.062Z,12.09
2023-03-31T03:59:41.501Z,12.09
2023-03-31T04:02:08.201Z,11.57
2023-03-31T04:04:34.850Z,12.00
2023-03-31T04:07:01.429Z,12.02
2023-03-31T04:09:28.574Z,12.11
2023-03-31T04:11:55.319Z,11.85
2023-03-31T04:14:21.858Z,11.87
2023-03-31T04:16:48.858Z,12.10
2023-03-31T04:19:17.683Z,11.87
2023-03-31T04:21:50.651Z,12.02
2023-03-31T04:24:21.713Z,12.11
2023-03-31T04:26:50.552Z,11.97
2023-03-31T04:29:17.691Z,11.73
2023-03-31T04:31:44.414Z,12.15
2023-03-31T04:34:15.595Z,12.16
2023-03-31T04:36:47.831Z,11.67
2023-03-31T04:39:17.144Z,12.16
2023-03-31T04:41:44.249Z,12.07
2023-03-31T04:44:10.809Z,11.85
2023-03-31T04:46:37.479Z,12.00
2023-03-31T04:49:05.628Z,11.71
2023-03-31T04:51:32.174Z,12.04
2023-03-31T04:53:58.593Z,11.76
2023-03-31T04:56:25.747Z,11.95
2023-03-31T04:58:52.205Z,11.74
2023-03-31T05:01:18.696Z,12.13
2023-03-31T05:03:48.288Z,11.87
2023-03-31T05:06:17.732Z,12.18
2023-03-31T05:08:44.749Z,11.87
2023-03-31T05:11:11.242Z,12.03
2023-03-31T05:13:37.743Z,12.01
2023-03-31T05:16:09.742Z,12.09
2023-03-31T05:18:36.646Z,12.13
2023-03-31T05:21:15.507Z,12.21
2023-03-31T05:23:42.300Z,11.95
2023-03-31T05:26:09.574Z,12.20
2023-03-31T05:28:36.757Z,12.21
2023-03-31T05:31:07.965Z,12.24
2023-03-31T05:33:34.992Z,12.22
2023-03-31T05:36:01.500Z,12.26
2023-03-31T05:38:31.660Z,12.26
2023-03-31T05:40:58.467Z,12.37
2023-03-31T05:43:28.137Z,12.19
2023-03-31T05:45:54.630Z,12.10
2023-03-31T05:48:21.464Z,12.17
2023-03-31T05:50:48.215Z,11.99
2023-03-31T05:53:14.654Z,12.30
2023-03-31T05:55:41.368Z,12.10
2023-03-31T05:58:08.691Z,12.22
2023-03-31T06:00:36.332Z,12.37
2023-03-31T06:03:03.187Z,12.24
2023-03-31T06:05:31.182Z,12.44
2023-03-31T06:07:57.853Z,12.41
2023-03-31T06:10:24.648Z,12.21
2023-03-31T06:12:51.141Z,12.30
2023-03-31T06:15:17.603Z,12.50
2023-03-31T06:17:44.182Z,12.42
2023-03-31T06:20:24.600Z,12.54
2023-03-31T06:22:53.326Z,12.55
2023-03-31T06:25:19.917Z,12.59
2023-03-31T06:27:46.406Z,12.47
2023-03-31T06:30:22.624Z,12.68
2023-03-31T06:32:49.391Z,12.45
2023-03-31T06:35:15.894Z,12.58
2023-03-31T06:37:42.399Z,12.78
2023-03-31T06:40:09.616Z,12.65
2023-03-31T06:42:36.111Z,12.38
2023-03-31T06:45:02.570Z,12.63
2023-03-31T06:47:28.970Z,12.62
2023-03-31T06:49:55.586Z,12.87
2023-03-31T06:52:22.021Z,13.02
2023-03-31T06:54:48.474Z,12.66
2023-03-31T06:57:15.009Z,13.14
2023-03-31T06:59:41.537Z,13.20
2023-03-31T07:02:10.238Z,13.25
2023-03-31T07:04:36.869Z,12.85
2023-03-31T07:07:03.393Z,13.04
2023-03-31T07:09:29.870Z,13.38
2023-03-31T07:11:56.875Z,13.10
2023-03-31T07:14:23.591Z,13.09
2023-03-31T07:16:50.848Z,13.55
2023-03-31T07:19:17.588Z,13.36
2023-03-31T07:21:44.042Z,13.45
2023-03-31T07:24:10.576Z,13.66
2023-03-31T07:26:37.056Z,13.63
2023-03-31T07:29:03.539Z,13.57
2023-03-31T07:31:30.334Z,13.79
2023-03-31T07:33:57.034Z,13.65
2023-03-31T07:36:23.803Z,13.50
2023-03-31T07:38:50.243Z,13.90
2023-03-31T07:41:20.297Z,13.99
2023-03-31T07:43:50.522Z,13.90
2023-03-31T07:46:19.219Z,14.28
2023-03-31T07:48:47.291Z,13.79
2023-03-31T07:51:22.799Z,14.09
2023-03-31T07:53:49.519Z,14.12
2023-03-31T07:56:17.127Z,14.18
2023-03-31T07:58:44.496Z,14.18
2023-03-31T08:01:17.261Z,14.19
2023-03-31T08:03:45.425Z,13.96
2023-03-31T08:06:12.525Z,14.16
2023-03-31T08:08:43.182Z,14.17
2023-03-31T08:11:11.178Z,13.83
2023-03-31T08:13:37.651Z,14.04
2023-03-31T08:16:04.634Z,13.76
2023-03-31T08:18:31.497Z,13.97
2023-03-31T08:20:58.155Z,13.61
2023-03-31T08:23:24.638Z,13.71
2023-03-31T08:25:53.183Z,13.51
2023-03-31T08:28:19.747Z,13.76
2023-03-31T08:30:46.399Z,13.72
2023-03-31T08:33:13.082Z,13.51
2023-03-31T08:35:39.742Z,13.70
2023-03-31T08:38:06.379Z,13.65
2023-03-31T08:40:33.689Z,13.47
2023-03-31T08:43:08.826Z,13.45
2023-03-31T08:45:39.662Z,13.32
2023-03-31T08:48:25.692Z,13.21
2023-03-31T08:51:05.541Z,13.20
2023-03-31T08:53:39.295Z,13.43
2023-03-31T08:56:14.762Z,13.39
2023-03-31T08:58:44.572Z,12.99
2023-03-31T09:01:22.772Z,13.37
2023-03-31T09:04:12.840Z,13.35
2023-03-31T09:06:39.587Z,13.39
2023-03-31T09:09:28.341Z,13.27
2023-03-31T09:11:58.635Z,13.18
2023-03-31T09:14:28.933Z,13.28
2023-03-31T09:17:01.565Z,13.30
2023-03-31T09:19:43.409Z,13.21
2023-03-31T09:22:18.561Z,12.98
2023-03-31T09:24:59.111Z,13.18
2023-03-31T09:27:28.560Z,13.11
2023-03-31T09:30:22.433Z,13.31
2023-03-31T09:32:53.657Z,13.15
2023-03-31T09:35:23.204Z,13.41
2023-03-31T09:37:50.266Z,13.36
2023-03-31T09:40:20.078Z,13.27
2023-03-31T09:42:51.349Z,13.55
2023-03-31T09:45:20.142Z,13.33
2023-03-31T09:47:52.117Z,13.06
2023-03-31T09:50:19.055Z,13.64
2023-03-31T09:52:57.020Z,13.23
2023-03-31T09:55:45.464Z,13.72
2023-03-31T09:58:15.080Z,13.57
2023-03-31T10:00:43.989Z,13.79
2023-03-31T10:03:14.372Z,13.85
2023-03-31T10:06:00.486Z,13.96
2023-03-31T10:08:39.708Z,14.03
2023-03-31T10:11:06.959Z,14.13
2023-03-31T10:14:04.987Z,14.25
2023-03-31T10:16:53.763Z,14.25
2023-03-31T10:19:31.681Z,14.15
2023-03-31T10:22:21.694Z,14.33
2023-03-31T10:24:50.451Z,14.33
2023-03-31T10:27:26.395Z,14.31
2023-03-31T10:30:13.185Z,13.99
2023-03-31T10:32:43.140Z,14.27
2023-03-31T10:35:29.992Z,14.14
2023-03-31T10:38:06.570Z,14.27
2023-03-31T10:40:35.222Z,14.30
2023-03-31T10:43:26.274Z,14.36
2023-03-31T10:45:59.905Z,14.39
2023-03-31T10:48:29.971Z,14.39
2023-03-31T10:51:17.056Z,14.58
2023-03-31T10:53:49.238Z,14.55
2023-03-31T10:56:42.860Z,14.71
2023-03-31T10:59:15.427Z,14.72
2023-03-31T11:02:00.336Z,14.81
2023-03-31T11:04:44.621Z,14.82
2023-03-31T11:07:27.459Z,14.97
2023-03-31T11:10:20.333Z,15.01
2023-03-31T11:13:11.381Z,15.04
2023-03-31T11:15:56.139Z,15.16
2023-03-31T11:18:36.068Z,15.18
2023-03-31T11:21:18.166Z,15.22
2023-03-31T11:23:58.936Z,14.84
2023-03-31T11:27:16.555Z,15.29
2023-03-31T11:29:52.752Z,14.92
2023-03-31T11:32:52.114Z,15.21
2023-03-31T11:35:38.520Z,15.13
2023-03-31T11:38:33.700Z,15.13
2023-03-31T11:41:13.612Z,14.80
2023-03-31T11:43:51.140Z,15.02
2023-03-31T11:46:23.745Z,14.87
2023-03-31T11:48:59.799Z,14.90
2023-03-31T11:51:34.723Z,14.85
2023-03-31T11:54:11.927Z,14.72
2023-03-31T11:56:41.139Z,14.38
2023-03-31T11:59:14.821Z,14.50
2023-03-31T12:01:51.632Z,13.89
2023-03-31T12:04:33.640Z,14.05
2023-03-31T12:07:14.995Z,14.08
2023-03-31T12:09:53.361Z,14.05
2023-03-31T12:12:27.221Z,13.97
2023-03-31T12:15:02.557Z,13.73
2023-03-31T12:17:29.538Z,13.90
2023-03-31T12:20:10.473Z,13.88
2023-03-31T12:22:43.751Z,13.63
2023-03-31T12:25:27.998Z,13.83
2023-03-31T12:27:56.504Z,13.81
2023-03-31T12:30:38.760Z,13.76
2023-03-31T12:33:14.056Z,13.33
2023-03-31T12:35:50.826Z,13.72
2023-03-31T12:38:24.610Z,13.57
2023-03-31T12:41:19.141Z,13.67
2023-03-31T12:44:23.917Z,13.70
2023-03-31T12:47:29.679Z,13.69
2023-03-31T12:50:35.280Z,13.69
2023-03-31T12:53:35.930Z,13.74
2023-03-31T12:56:02.731Z,13.60
2023-03-31T12:58:32.427Z,13.79
2023-03-31T13:01:05.153Z,13.94
2023-03-31T13:03:35.342Z,13.80
2023-03-31T13:06:04.004Z,13.89
2023-03-31T13:08:51.465Z,13.99
2023-03-31T13:11:20.284Z,14.06
2023-03-31T13:14:17.516Z,14.21
2023-03-31T13:16:44.092Z,14.33
2023-03-31T13:19:24.593Z,14.07
2023-03-31T13:21:54.915Z,14.65
2023-03-31T13:24:22.465Z,14.86
2023-03-31T13:26:49.691Z,14.72
2023-03-31T13:29:16.404Z,14.85
2023-03-31T13:32:01.246Z,14.90
2023-03-31T13:34:47.979Z,14.92
2023-03-31T13:37:33.108Z,14.95
2023-03-31T13:40:50.129Z,15.07
2023-03-31T13:43:36.741Z,15.11
2023-03-31T13:46:34.458Z,15.16
2023-03-31T13:49:19.874Z,15.21
2023-03-31T13:52:10.175Z,14.78
2023-03-31T13:54:39.323Z,15.37
2023-03-31T13:57:39.806Z,15.17
2023-03-31T14:00:44.005Z,15.30
2023-03-31T14:03:13.593Z,15.23
2023-03-31T14:05:45.509Z,15.22
2023-03-31T14:08:19.916Z,14.81
2023-03-31T14:10:46.380Z,14.87
2023-03-31T14:13:14.882Z,15.14
2023-03-31T14:15:53.598Z,15.14
2023-03-31T14:18:30.244Z,14.99
2023-03-31T14:21:17.934Z,14.97
2023-03-31T14:24:28.879Z,15.23
2023-03-31T14:27:12.675Z,15.22
2023-03-31T14:29:55.150Z,15.08
2023-03-31T14:33:09.796Z,15.31
2023-03-31T14:35:44.245Z,15.18
2023-03-31T14:38:15.923Z,14.57
2023-03-31T14:40:48.547Z,14.94
2023-03-31T14:43:36.834Z,15.12
2023-03-31T14:46:08.658Z,15.20
2023-03-31T14:48:45.089Z,15.09
2023-03-31T14:51:14.397Z,14.81
2023-03-31T14:53:41.034Z,15.25
2023-03-31T14:56:12.439Z,15.48
2023-03-31T14:58:44.252Z,15.72
2023-03-31T15:01:17.372Z,15.90
2023-03-31T15:03:44.917Z,15.92
2023-03-31T15:06:11.750Z,16.16
2023-03-31T15:08:38.741Z,16.32
2023-03-31T15:11:12.851Z,16.22
2023-03-31T15:14:00.590Z,16.34
2023-03-31T15:16:42.153Z,16.35
2023-03-31T15:19:16.938Z,16.12
2023-03-31T15:21:44.405Z,15.86
2023-03-31T15:24:14.948Z,14.92
2023-03-31T15:26:46.049Z,15.52
2023-03-31T15:29:19.764Z,15.33
2023-03-31T15:31:47.211Z,15.24
2023-03-31T15:34:30.789Z,14.71
2023-03-31T15:36:57.859Z,14.90
2023-03-31T15:39:27.929Z,14.62
2023-03-31T15:41:56.539Z,14.67
2023-03-31T15:44:30.406Z,14.79
2023-03-31T15:47:01.900Z,14.65
2023-03-31T15:49:29.477Z,14.72
2023-03-31T15:52:01.229Z,14.72
2023-03-31T15:54:43.132Z,14.45
2023-03-31T15:57:17.837Z,14.76
2023-03-31T15:59:57.860Z,14.64
2023-03-31T16:02:46.861Z,14.76
2023-03-31T16:05:29.385Z,14.79
2023-03-31T16:07:58.257Z,14.62
2023-03-31T16:10:25.886Z,14.71
2023-03-31T16:13:00.692Z,14.49
2023-03-31T16:15:40.836Z,14.36
2023-03-31T16:18:14.529Z,14.77
2023-03-31T16:20:46.099Z,14.64
2023-03-31T16:23:26.210Z,14.62
2023-03-31T16:25:53.786Z,14.56
2023-03-31T16:28:23.682Z,14.54
2023-03-31T16:30:50.819Z,14.52
2023-03-31T16:33:20.052Z,14.39
2023-03-31T16:35:53.723Z,14.20
2023-03-31T16:38:22.351Z,14.36
2023-03-31T16:40:51.662Z,14.09
2023-03-31T16:43:22.392Z,14.33
2023-03-31T16:45:52.920Z,14.28
2023-03-31T16:48:21.489Z,14.25
2023-03-31T16:50:50.295Z,14.05
2023-03-31T16:53:19.987Z,14.18
2023-03-31T16:55:47.150Z,13.83
2023-03-31T16:58:13.966Z,14.12
2023-03-31T17:00:41.451Z,14.09
2023-03-31T17:03:10.020Z,14.06
2023-03-31T17:05:45.144Z,13.90
2023-03-31T17:08:12.960Z,13.71
2023-03-31T17:10:40.718Z,13.75
2023-03-31T17:13:08.627Z,13.80
2023-03-31T17:15:36.686Z,13.68
2023-03-31T17:18:04.456Z,13.90
2023-03-31T17:20:31.553Z,14.05
2023-03-31T17:22:58.646Z,14.03
2023-03-31T17:25:25.983Z,14.06
2023-03-31T17:27:52.444Z,13.67
2023-03-31T17:30:24.653Z,13.52
2023-03-31T17:32:52.269Z,13.96
2023-03-31T17:35:23.413Z,13.91
2023-03-31T17:37:53.371Z,14.04
2023-03-31T17:40:20.992Z,13.88
2023-03-31T17:42:47.437Z,13.53
2023-03-31T17:45:14.680Z,13.66
2023-03-31T17:47:41.988Z,13.89
2023-03-31T17:50:09.372Z,13.97
2023-03-31T17:52:36.136Z,13.49
2023-03-31T17:55:04.216Z,13.80
2023-03-31T17:57:40.951Z,13.61
2023-03-31T18:00:10.446Z,13.87
2023-03-31T18:02:38.424Z,13.66
2023-03-31T18:05:06.916Z,13.62
2023-03-31T18:07:34.799Z,13.68
2023-03-31T18:10:02.156Z,13.43
2023-03-31T18:12:29.595Z,13.69
2023-03-31T18:14:56.670Z,13.43
2023-03-31T18:17:23.209Z,13.60
2023-03-31T18:19:49.839Z,13.58
2023-03-31T18:22:16.330Z,13.14
2023-03-31T18:24:44.323Z,12.93
2023-03-31T18:27:10.811Z,13.33
2023-03-31T18:29:39.337Z,13.33
2023-03-31T18:32:06.488Z,13.32
2023-03-31T18:34:33.687Z,13.28
2023-03-31T18:37:00.245Z,13.19
2023-03-31T18:39:27.441Z,12.75
2023-03-31T18:41:54.237Z,13.00
2023-03-31T18:44:21.712Z,12.98
2023-03-31T18:46:48.709Z,12.99
2023-03-31T18:49:15.365Z,12.99
2023-03-31T18:51:41.936Z,12.97
2023-03-31T18:54:08.669Z,12.95
2023-03-31T18:56:35.356Z,12.96
2023-03-31T18:59:04.233Z,12.79
2023-03-31T19:01:39.627Z,12.91
2023-03-31T19:04:07.806Z,12.81
2023-03-31T19:06:35.834Z,12.85
2023-03-31T19:09:02.310Z,12.74
2023-03-31T19:11:28.852Z,12.85
2023-03-31T19:13:55.946Z,12.75
2023-03-31T19:16:24.574Z,12.51
2023-03-31T19:18:51.264Z,13.00
2023-03-31T19:21:17.777Z,12.99
2023-03-31T19:23:44.222Z,12.82
2023-03-31T19:26:15.703Z,12.57
2023-03-31T19:28:42.523Z,12.96
2023-03-31T19:31:10.907Z,12.95
2023-03-31T19:33:37.553Z,12.92
2023-03-31T19:36:04.348Z,12.91
2023-03-31T19:38:32.598Z,12.89
2023-03-31T19:40:59.995Z,12.54
2023-03-31T19:43:27.225Z,12.35
2023-03-31T19:45:56.857Z,12.65
2023-03-31T19:48:26.425Z,12.46
2023-03-31T19:50:55.872Z,12.75
2023-03-31T19:53:23.581Z,12.32
2023-03-31T19:55:59.132Z,12.70
2023-03-31T19:58:27.129Z,12.64
2023-03-31T20:00:55.293Z,12.54
2023-03-31T20:03:24.191Z,12.50
2023-03-31T20:05:51.853Z,12.38
2023-03-31T20:08:18.268Z,12.43
2023-03-31T20:10:44.969Z,12.49
2023-03-31T20:13:11.890Z,12.31
2023-03-31T20:15:39.747Z,12.37
2023-03-31T20:18:07.279Z,12.43
2023-03-31T20:20:34.324Z,12.33
2023-03-31T20:23:00.950Z,12.30
2023-03-31T20:25:27.911Z,12.28
2023-03-31T20:27:54.845Z,12.30
2023-03-31T20:30:21.505Z,12.14
2023-03-31T20:32:47.992Z,12.42
2023-03-31T20:35:14.524Z,12.16
2023-03-31T20:37:40.985Z,12.19
2023-03-31T20:40:07.996Z,12.59
2023-03-31T20:42:35.884Z,12.52
2023-03-31T20:45:03.070Z,12.16
2023-03-31T20:47:29.527Z,12.44
2023-03-31T20:49:55.982Z,12.32
2023-03-31T20:52:23.019Z,12.42
2023-03-31T20:54:49.534Z,12.74
2023-03-31T20:57:16.419Z,12.76
2023-03-31T20:59:42.932Z,12.77
2023-03-31T21:02:12.903Z,12.79
2023-03-31T21:04:39.407Z,12.55
2023-03-31T21:07:06.147Z,12.84
2023-03-31T21:09:33.029Z,12.87
2023-03-31T21:12:00.882Z,12.69
2023-03-31T21:14:27.467Z,12.82
2023-03-31T21:16:54.027Z,12.83
2023-03-31T21:19:21.095Z,12.66
2023-03-31T21:21:47.537Z,12.78
2023-03-31T21:24:14.923Z,12.67
2023-03-31T21:26:41.510Z,12.67
2023-03-31T21:29:08.233Z,12.92
2023-03-31T21:31:35.179Z,12.85
2023-03-31T21:34:02.600Z,13.02
2023-03-31T21:36:29.228Z,13.04
2023-03-31T21:38:57.322Z,13.04
2023-03-31T21:41:30.553Z,12.93
2023-03-31T21:44:00.567Z,13.08
2023-03-31T21:46:30.629Z,13.07
2023-03-31T21:48:57.617Z,12.99
2023-03-31T21:51:25.716Z,13.05
2023-03-31T21:53:55.336Z,13.02
2023-03-31T21:56:23.399Z,12.93
2023-03-31T21:58:50.874Z,13.00
2023-03-31T22:01:18.464Z,12.74
2023-03-31T22:03:45.667Z,12.80
2023-03-31T22:06:12.537Z,12.85
2023-03-31T22:08:39.896Z,12.81
2023-03-31T22:11:08.018Z,12.56
2023-03-31T22:13:35.333Z,12.86
2023-03-31T22:16:03.771Z,12.85
2023-03-31T22:18:30.653Z,12.83
2023-03-31T22:20:57.581Z,12.28
2023-03-31T22:23:24.436Z,12.80
2023-03-31T22:25:51.314Z,12.64
2023-03-31T22:28:17.955Z,12.64
2023-03-31T22:30:44.516Z,12.60
2023-03-31T22:33:11.293Z,12.73
2023-03-31T22:35:37.829Z,12.42
2023-03-31T22:38:06.177Z,12.54
2023-03-31T22:40:34.966Z,12.43
2023-03-31T22:43:01.696Z,12.45
2023-03-31T22:45:28.322Z,12.56
2023-03-31T22:47:55.050Z,12.55
2023-03-31T22:50:21.602Z,12.47
2023-03-31T22:52:48.162Z,12.47
2023-03-31T22:55:14.668Z,12.47
2023-03-31T22:57:41.268Z,12.46
2023-03-31T23:00:09.113Z,12.22
2023-03-31T23:02:35.842Z,12.29
2023-03-31T23:05:02.494Z,12.39
2023-03-31T23:07:29.870Z,12.35
2023-03-31T23:09:56.283Z,12.31
2023-03-31T23:12:25.771Z,12.33
2023-03-31T23:14:52.283Z,12.63
2023-03-31T23:17:19.003Z,12.39
2023-03-31T23:19:48.596Z,12.63
2023-03-31T23:22:15.336Z,12.49
2023-03-31T23:24:42.056Z,12.61
2023-03-31T23:27:24.802Z,12.62
2023-03-31T23:29:51.254Z,12.48
2023-03-31T23:32:18.028Z,12.45
2023-03-31T23:34:44.527Z,12.62
2023-03-31T23:37:13.214Z,12.62
2023-03-31T23:39:39.877Z,12.43
2023-03-31T23:42:07.574Z,12.26
2023-03-31T23:44:37.056Z,12.53
2023-03-31T23:47:04.891Z,12.64
2023-03-31T23:49:38.864Z,12.63
2023-03-31T23:52:05.735Z,12.62
2023-03-31T23:54:32.728Z,12.25
2023-03-31T23:56:59.291Z,12.62
2023-03-31T23:59:28.989Z,12.39
